sensor_id;sensor_type;location;lat;lon;timestamp;pressure;altitude;pressure_sealevel;temperature;humidity
70559;BME280;58108;48.094;11.838;2022-12-07T00:03:39;95309.13;;;1.21;100.00
70559;BME280;58108;48.094;11.838;2022-12-07T00:06:06;95311.19;;;1.13;100.00
70559;BME280;58108;48.094;11.838;2022-12-07T00:08:32;95319.97;;;1.28;100.00
70559;BME280;58108;48.094;11.838;2022-12-07T00:11:03;95312.31;;;1.27;100.00
70559;BME280;58108;48.094;11.838;2022-12-07T00:13:30;95316.28;;;1.34;100.00
70559;BME280;58108;48.094;11.838;2022-12-07T00:15:55;95308.78;;;1.08;100.00
70559;BME280;58108;48.094;11.838;2022-12-07T00:18:20;95309.44;;;1.14;100.00
70559;BME280;58108;48.094;11.838;2022-12-07T00:20:46;95310.03;;;1.20;100.00
70559;BME280;58108;48.094;11.838;2022-12-07T00:23:11;95311.81;;;1.18;100.00
70559;BME280;58108;48.094;11.838;2022-12-07T00:25:36;95304.34;;;1.12;100.00
70559;BME280;58108;48.094;11.838;2022-12-07T00:28:01;95303.53;;;1.31;100.00
70559;BME280;58108;48.094;11.838;2022-12-07T00:30:27;95299.13;;;1.33;100.00
70559;BME280;58108;48.094;11.838;2022-12-07T00:32:52;95305.56;;;1.24;100.00
70559;BME280;58108;48.094;11.838;2022-12-07T00:35:17;95304.38;;;1.31;100.00
70559;BME280;58108;48.094;11.838;2022-12-07T00:37:43;95305.75;;;1.19;100.00
70559;BME280;58108;48.094;11.838;2022-12-07T00:40:08;95299.34;;;1.28;100.00
70559;BME280;58108;48.094;11.838;2022-12-07T00:42:34;95297.88;;;1.22;100.00
70559;BME280;58108;48.094;11.838;2022-12-07T00:44:59;95304.28;;;1.33;100.00
70559;BME280;58108;48.094;11.838;2022-12-07T00:47:24;95297.47;;;1.32;100.00
70559;BME280;58108;48.094;11.838;2022-12-07T00:49:50;95305.03;;;1.16;100.00
70559;BME280;58108;48.094;11.838;2022-12-07T00:52:15;95304.44;;;1.30;100.00
70559;BME280;58108;48.094;11.838;2022-12-07T00:54:40;95310.28;;;1.14;100.00
70559;BME280;58108;48.094;11.838;2022-12-07T00:57:06;95303.16;;;1.19;100.00
70559;BME280;58108;48.094;11.838;2022-12-07T00:59:31;95302.78;;;1.29;100.00
70559;BME280;58108;48.094;11.838;2022-12-07T01:01:56;95300.09;;;1.30;100.00
70559;BME280;58108;48.094;11.838;2022-12-07T01:04:21;95300.47;;;1.22;100.00
70559;BME280;58108;48.094;11.838;2022-12-07T01:06:47;95295.25;;;1.24;100.00
70559;BME280;58108;48.094;11.838;2022-12-07T01:09:12;95292.16;;;1.16;100.00
70559;BME280;58108;48.094;11.838;2022-12-07T01:11:37;95296.78;;;1.28;100.00
70559;BME280;58108;48.094;11.838;2022-12-07T01:14:03;95295.50;;;0.99;100.00
70559;BME280;58108;48.094;11.838;2022-12-07T01:16:30;95296.69;;;1.11;100.00
70559;BME280;58108;48.094;11.838;2022-12-07T01:18:57;95299.81;;;1.17;100.00
70559;BME280;58108;48.094;11.838;2022-12-07T01:21:28;95306.38;;;1.25;100.00
70559;BME280;58108;48.094;11.838;2022-12-07T01:23:54;95307.28;;;1.23;100.00
70559;BME280;58108;48.094;11.838;2022-12-07T01:26:21;95302.56;;;1.14;100.00
70559;BME280;58108;48.094;11.838;2022-12-07T01:28:48;95288.53;;;1.20;100.00
70559;BME280;58108;48.094;11.838;2022-12-07T01:31:18;95294.81;;;1.14;100.00
70559;BME280;58108;48.094;11.838;2022-12-07T01:33:46;95293.13;;;0.94;100.00
70559;BME280;58108;48.094;11.838;2022-12-07T01:38:39;95304.88;;;1.20;100.00
70559;BME280;58108;48.094;11.838;2022-12-07T01:41:05;95300.19;;;1.09;100.00
70559;BME280;58108;48.094;11.838;2022-12-07T01:43:32;95298.28;;;0.73;100.00
70559;BME280;58108;48.094;11.838;2022-12-07T01:45:58;95284.69;;;0.70;100.00
70559;BME280;58108;48.094;11.838;2022-12-07T01:48:40;95293.03;;;0.95;100.00
70559;BME280;58108;48.094;11.838;2022-12-07T01:51:11;95294.00;;;0.93;100.00
70559;BME280;58108;48.094;11.838;2022-12-07T01:53:43;95290.28;;;0.79;100.00
70559;BME280;58108;48.094;11.838;2022-12-07T01:56:12;95292.22;;;0.95;100.00
70559;BME280;58108;48.094;11.838;2022-12-07T01:58:40;95286.91;;;0.98;100.00
70559;BME280;58108;48.094;11.838;2022-12-07T02:01:06;95286.44;;;1.09;100.00
70559;BME280;58108;48.094;11.838;2022-12-07T02:03:34;95290.06;;;1.05;100.00
70559;BME280;58108;48.094;11.838;2022-12-07T02:06:01;95287.28;;;1.09;100.00
70559;BME280;58108;48.094;11.838;2022-12-07T02:08:26;95285.59;;;1.08;100.00
70559;BME280;58108;48.094;11.838;2022-12-07T02:10:52;95289.28;;;1.03;100.00
70559;BME280;58108;48.094;11.838;2022-12-07T02:13:21;95288.28;;;0.65;100.00
70559;BME280;58108;48.094;11.838;2022-12-07T02:16:04;95284.75;;;0.89;100.00
70559;BME280;58108;48.094;11.838;2022-12-07T02:21:54;95280.94;;;0.77;100.00
70559;BME280;58108;48.094;11.838;2022-12-07T02:33:03;95273.53;;;0.69;100.00
70559;BME280;58108;48.094;11.838;2022-12-07T02:35:34;95280.19;;;0.54;100.00
70559;BME280;58108;48.094;11.838;2022-12-07T02:38:18;95285.53;;;0.49;100.00
70559;BME280;58108;48.094;11.838;2022-12-07T02:40:51;95285.34;;;0.54;100.00
70559;BME280;58108;48.094;11.838;2022-12-07T02:43:27;95282.38;;;0.63;100.00
70559;BME280;58108;48.094;11.838;2022-12-07T02:45:59;95272.00;;;0.65;100.00
70559;BME280;58108;48.094;11.838;2022-12-07T02:48:27;95267.81;;;0.62;100.00
70559;BME280;58108;48.094;11.838;2022-12-07T02:50:53;95272.00;;;0.44;100.00
70559;BME280;58108;48.094;11.838;2022-12-07T02:57:10;95267.88;;;0.61;100.00
70559;BME280;58108;48.094;11.838;2022-12-07T03:10:18;95280.81;;;0.80;100.00
70559;BME280;58108;48.094;11.838;2022-12-07T03:15:20;95278.31;;;0.58;100.00
70559;BME280;58108;48.094;11.838;2022-12-07T03:17:47;95279.50;;;0.50;100.00
70559;BME280;58108;48.094;11.838;2022-12-07T03:20:17;95269.47;;;0.84;100.00
70559;BME280;58108;48.094;11.838;2022-12-07T03:22:45;95268.03;;;0.58;100.00
70559;BME280;58108;48.094;11.838;2022-12-07T03:25:14;95271.56;;;0.55;100.00
70559;BME280;58108;48.094;11.838;2022-12-07T03:27:53;95272.06;;;0.43;100.00
70559;BME280;58108;48.094;11.838;2022-12-07T03:30:23;95273.31;;;0.34;100.00
70559;BME280;58108;48.094;11.838;2022-12-07T03:32:56;95266.41;;;0.76;100.00
70559;BME280;58108;48.094;11.838;2022-12-07T03:35:32;95263.22;;;0.48;100.00
70559;BME280;58108;48.094;11.838;2022-12-07T03:38:02;95250.75;;;0.60;100.00
70559;BME280;58108;48.094;11.838;2022-12-07T03:40:39;95266.81;;;0.46;100.00
70559;BME280;58108;48.094;11.838;2022-12-07T03:43:06;95268.19;;;0.74;100.00
70559;BME280;58108;48.094;11.838;2022-12-07T03:45:45;95264.91;;;0.70;100.00
70559;BME280;58108;48.094;11.838;2022-12-07T03:50:58;95258.47;;;0.39;100.00
70559;BME280;58108;48.094;11.838;2022-12-07T03:53:35;95260.94;;;0.21;100.00
70559;BME280;58108;48.094;11.838;2022-12-07T03:56:02;95261.88;;;0.19;100.00
70559;BME280;58108;48.094;11.838;2022-12-07T03:58:29;95260.47;;;0.11;100.00
70559;BME280;58108;48.094;11.838;2022-12-07T04:00:56;95260.50;;;0.10;100.00
70559;BME280;58108;48.094;11.838;2022-12-07T04:03:21;95259.56;;;0.12;100.00
70559;BME280;58108;48.094;11.838;2022-12-07T04:05:46;95255.25;;;0.13;100.00
70559;BME280;58108;48.094;11.838;2022-12-07T04:08:12;95250.75;;;0.18;100.00
70559;BME280;58108;48.094;11.838;2022-12-07T04:10:37;95251.63;;;0.17;100.00
70559;BME280;58108;48.094;11.838;2022-12-07T04:13:03;95250.69;;;0.40;100.00
70559;BME280;58108;48.094;11.838;2022-12-07T04:15:28;95253.63;;;0.73;100.00
70559;BME280;58108;48.094;11.838;2022-12-07T04:17:53;95254.00;;;0.84;100.00
70559;BME280;58108;48.094;11.838;2022-12-07T04:20:20;95248.69;;;0.68;100.00
70559;BME280;58108;48.094;11.838;2022-12-07T04:22:45;95246.19;;;0.46;100.00
70559;BME280;58108;48.094;11.838;2022-12-07T04:25:10;95251.19;;;0.28;100.00
70559;BME280;58108;48.094;11.838;2022-12-07T04:27:36;95252.16;;;0.25;100.00
70559;BME280;58108;48.094;11.838;2022-12-07T04:30:01;95250.56;;;0.23;100.00
70559;BME280;58108;48.094;11.838;2022-12-07T04:32:27;95245.78;;;0.34;100.00
70559;BME280;58108;48.094;11.838;2022-12-07T04:34:52;95246.97;;;0.48;100.00
70559;BME280;58108;48.094;11.838;2022-12-07T04:37:18;95242.81;;;0.44;100.00
70559;BME280;58108;48.094;11.838;2022-12-07T04:39:43;95258.09;;;0.48;100.00
70559;BME280;58108;48.094;11.838;2022-12-07T04:42:10;95256.09;;;0.34;100.00
70559;BME280;58108;48.094;11.838;2022-12-07T04:44:35;95254.34;;;0.56;100.00
70559;BME280;58108;48.094;11.838;2022-12-07T04:47:01;95254.94;;;0.42;100.00
70559;BME280;58108;48.094;11.838;2022-12-07T04:49:26;95249.34;;;0.32;100.00
70559;BME280;58108;48.094;11.838;2022-12-07T04:51:52;95240.00;;;0.50;100.00
70559;BME280;58108;48.094;11.838;2022-12-07T04:54:18;95251.44;;;0.84;100.00
70559;BME280;58108;48.094;11.838;2022-12-07T04:56:43;95255.00;;;1.01;100.00
70559;BME280;58108;48.094;11.838;2022-12-07T04:59:10;95249.38;;;0.72;100.00
70559;BME280;58108;48.094;11.838;2022-12-07T05:01:36;95247.72;;;0.71;100.00
70559;BME280;58108;48.094;11.838;2022-12-07T05:04:02;95247.06;;;0.45;100.00
70559;BME280;58108;48.094;11.838;2022-12-07T05:06:27;95256.41;;;0.47;100.00
70559;BME280;58108;48.094;11.838;2022-12-07T05:08:53;95255.84;;;0.61;100.00
70559;BME280;58108;48.094;11.838;2022-12-07T05:11:18;95248.31;;;0.36;100.00
70559;BME280;58108;48.094;11.838;2022-12-07T05:14:13;95252.75;;;0.53;100.00
70559;BME280;58108;48.094;11.838;2022-12-07T05:16:39;95257.16;;;0.30;100.00
70559;BME280;58108;48.094;11.838;2022-12-07T05:19:05;95255.38;;;0.31;100.00
70559;BME280;58108;48.094;11.838;2022-12-07T05:21:30;95254.78;;;0.65;100.00
70559;BME280;58108;48.094;11.838;2022-12-07T05:23:56;95250.69;;;0.61;100.00
70559;BME280;58108;48.094;11.838;2022-12-07T05:26:22;95246.97;;;0.48;100.00
70559;BME280;58108;48.094;11.838;2022-12-07T05:28:54;95255.38;;;0.72;100.00
70559;BME280;58108;48.094;11.838;2022-12-07T05:31:20;95259.59;;;0.94;100.00
70559;BME280;58108;48.094;11.838;2022-12-07T05:33:46;95260.06;;;0.83;100.00
70559;BME280;58108;48.094;11.838;2022-12-07T05:36:11;95257.28;;;0.88;100.00
70559;BME280;58108;48.094;11.838;2022-12-07T05:38:36;95251.09;;;0.71;100.00
70559;BME280;58108;48.094;11.838;2022-12-07T05:41:03;95255.13;;;0.58;100.00
70559;BME280;58108;48.094;11.838;2022-12-07T05:43:29;95252.56;;;0.58;100.00
70559;BME280;58108;48.094;11.838;2022-12-07T05:45:54;95250.22;;;0.72;100.00
70559;BME280;58108;48.094;11.838;2022-12-07T05:48:20;95251.72;;;0.57;100.00
70559;BME280;58108;48.094;11.838;2022-12-07T05:50:47;95249.22;;;0.35;100.00
70559;BME280;58108;48.094;11.838;2022-12-07T05:53:13;95250.38;;;0.28;100.00
70559;BME280;58108;48.094;11.838;2022-12-07T05:55:39;95246.44;;;0.39;100.00
70559;BME280;58108;48.094;11.838;2022-12-07T05:58:04;95245.59;;;0.18;100.00
70559;BME280;58108;48.094;11.838;2022-12-07T06:00:48;95245.53;;;0.20;100.00
70559;BME280;58108;48.094;11.838;2022-12-07T06:03:14;95248.16;;;0.18;100.00
70559;BME280;58108;48.094;11.838;2022-12-07T06:05:39;95257.31;;;0.25;100.00
70559;BME280;58108;48.094;11.838;2022-12-07T06:08:04;95260.22;;;0.38;100.00
70559;BME280;58108;48.094;11.838;2022-12-07T06:10:29;95263.25;;;0.28;100.00
70559;BME280;58108;48.094;11.838;2022-12-07T06:12:55;95260.16;;;0.19;100.00
70559;BME280;58108;48.094;11.838;2022-12-07T06:15:20;95261.00;;;0.40;100.00
70559;BME280;58108;48.094;11.838;2022-12-07T06:17:48;95258.63;;;0.36;100.00
70559;BME280;58108;48.094;11.838;2022-12-07T06:20:13;95259.91;;;0.46;100.00
70559;BME280;58108;48.094;11.838;2022-12-07T06:22:38;95264.41;;;0.20;100.00
70559;BME280;58108;48.094;11.838;2022-12-07T06:25:04;95268.91;;;0.15;100.00
70559;BME280;58108;48.094;11.838;2022-12-07T06:27:29;95266.16;;;0.40;100.00
70559;BME280;58108;48.094;11.838;2022-12-07T06:29:55;95270.91;;;0.08;100.00
70559;BME280;58108;48.094;11.838;2022-12-07T06:32:20;95271.41;;;0.17;100.00
70559;BME280;58108;48.094;11.838;2022-12-07T06:34:45;95277.06;;;0.04;100.00
70559;BME280;58108;48.094;11.838;2022-12-07T06:37:12;95276.44;;;0.20;100.00
70559;BME280;58108;48.094;11.838;2022-12-07T06:39:37;95276.56;;;0.37;100.00
70559;BME280;58108;48.094;11.838;2022-12-07T06:42:03;95269.81;;;0.56;100.00
70559;BME280;58108;48.094;11.838;2022-12-07T06:44:29;95279.34;;;0.53;100.00
70559;BME280;58108;48.094;11.838;2022-12-07T06:46:55;95280.31;;;0.30;100.00
70559;BME280;58108;48.094;11.838;2022-12-07T06:49:21;95276.69;;;0.34;100.00
70559;BME280;58108;48.094;11.838;2022-12-07T06:51:46;95275.41;;;0.45;100.00
70559;BME280;58108;48.094;11.838;2022-12-07T06:54:13;95271.25;;;0.42;100.00
70559;BME280;58108;48.094;11.838;2022-12-07T06:56:39;95276.03;;;0.29;100.00
70559;BME280;58108;48.094;11.838;2022-12-07T06:59:05;95287.91;;;0.33;100.00
70559;BME280;58108;48.094;11.838;2022-12-07T07:01:32;95289.34;;;0.40;100.00
70559;BME280;58108;48.094;11.838;2022-12-07T07:03:58;95293.53;;;0.43;100.00
70559;BME280;58108;48.094;11.838;2022-12-07T07:06:23;95287.47;;;0.65;100.00
70559;BME280;58108;48.094;11.838;2022-12-07T07:08:49;95286.63;;;0.64;100.00
70559;BME280;58108;48.094;11.838;2022-12-07T07:11:14;95289.19;;;0.64;100.00
70559;BME280;58108;48.094;11.838;2022-12-07T07:13:39;95294.72;;;0.34;100.00
70559;BME280;58108;48.094;11.838;2022-12-07T07:16:05;95287.72;;;0.38;100.00
70559;BME280;58108;48.094;11.838;2022-12-07T07:18:31;95296.16;;;0.42;100.00
70559;BME280;58108;48.094;11.838;2022-12-07T07:20:56;95296.41;;;0.56;100.00
70559;BME280;58108;48.094;11.838;2022-12-07T07:23:22;95292.94;;;0.57;100.00
70559;BME280;58108;48.094;11.838;2022-12-07T07:25:48;95288.53;;;0.59;100.00
70559;BME280;58108;48.094;11.838;2022-12-07T07:28:14;95297.63;;;0.47;100.00
70559;BME280;58108;48.094;11.838;2022-12-07T07:30:39;95293.88;;;0.13;100.00
70559;BME280;58108;48.094;11.838;2022-12-07T07:33:05;95296.22;;;0.19;100.00
70559;BME280;58108;48.094;11.838;2022-12-07T07:35:32;95305.31;;;0.49;100.00
70559;BME280;58108;48.094;11.838;2022-12-07T07:37:58;95308.44;;;0.76;100.00
70559;BME280;58108;48.094;11.838;2022-12-07T07:40:24;95310.91;;;0.79;100.00
70559;BME280;58108;48.094;11.838;2022-12-07T07:42:53;95309.69;;;0.67;100.00
70559;BME280;58108;48.094;11.838;2022-12-07T07:45:20;95304.09;;;0.58;100.00
70559;BME280;58108;48.094;11.838;2022-12-07T07:47:46;95307.81;;;0.50;100.00
70559;BME280;58108;48.094;11.838;2022-12-07T07:50:12;95314.78;;;0.69;100.00
70559;BME280;58108;48.094;11.838;2022-12-07T07:52:37;95313.69;;;0.54;100.00
70559;BME280;58108;48.094;11.838;2022-12-07T07:55:03;95310.25;;;0.53;100.00
70559;BME280;58108;48.094;11.838;2022-12-07T07:57:28;95307.28;;;0.63;100.00
70559;BME280;58108;48.094;11.838;2022-12-07T07:59:54;95308.19;;;0.62;100.00
70559;BME280;58108;48.094;11.838;2022-12-07T08:02:20;95312.69;;;0.77;100.00
70559;BME280;58108;48.094;11.838;2022-12-07T08:04:47;95309.41;;;0.94;100.00
70559;BME280;58108;48.094;11.838;2022-12-07T08:07:13;95306.88;;;0.93;100.00
70559;BME280;58108;48.094;11.838;2022-12-07T08:09:39;95308.84;;;0.88;100.00
70559;BME280;58108;48.094;11.838;2022-12-07T08:12:05;95315.41;;;0.53;100.00
70559;BME280;58108;48.094;11.838;2022-12-07T08:14:31;95316.00;;;0.60;100.00
70559;BME280;58108;48.094;11.838;2022-12-07T08:16:56;95319.72;;;0.74;100.00
70559;BME280;58108;48.094;11.838;2022-12-07T08:19:22;95314.31;;;0.80;100.00
70559;BME280;58108;48.094;11.838;2022-12-07T08:21:47;95315.88;;;0.84;100.00
70559;BME280;58108;48.094;11.838;2022-12-07T08:24:13;95321.28;;;0.78;100.00
70559;BME280;58108;48.094;11.838;2022-12-07T08:26:38;95317.44;;;0.67;100.00
70559;BME280;58108;48.094;11.838;2022-12-07T08:29:03;95316.13;;;0.78;100.00
70559;BME280;58108;48.094;11.838;2022-12-07T08:31:29;95314.25;;;0.81;100.00
70559;BME280;58108;48.094;11.838;2022-12-07T08:33:55;95310.66;;;0.65;100.00
70559;BME280;58108;48.094;11.838;2022-12-07T08:36:21;95310.22;;;0.76;100.00
70559;BME280;58108;48.094;11.838;2022-12-07T08:38:49;95310.38;;;0.71;100.00
70559;BME280;58108;48.094;11.838;2022-12-07T08:41:15;95329.53;;;0.65;100.00
70559;BME280;58108;48.094;11.838;2022-12-07T08:43:41;95324.94;;;0.51;100.00
70559;BME280;58108;48.094;11.838;2022-12-07T08:46:13;95326.69;;;0.72;100.00
70559;BME280;58108;48.094;11.838;2022-12-07T08:48:48;95321.03;;;0.63;100.00
70559;BME280;58108;48.094;11.838;2022-12-07T08:51:14;95316.63;;;0.65;100.00
70559;BME280;58108;48.094;11.838;2022-12-07T08:53:39;95318.41;;;0.65;100.00
70559;BME280;58108;48.094;11.838;2022-12-07T08:56:05;95314.66;;;0.72;100.00
70559;BME280;58108;48.094;11.838;2022-12-07T08:58:33;95321.09;;;0.82;100.00
70559;BME280;58108;48.094;11.838;2022-12-07T09:00:59;95320.31;;;0.80;100.00
70559;BME280;58108;48.094;11.838;2022-12-07T09:03:24;95321.78;;;0.65;100.00
70559;BME280;58108;48.094;11.838;2022-12-07T09:05:50;95321.28;;;0.78;100.00
70559;BME280;58108;48.094;11.838;2022-12-07T09:08:15;95327.84;;;0.85;100.00
70559;BME280;58108;48.094;11.838;2022-12-07T09:10:41;95331.38;;;0.82;100.00
70559;BME280;58108;48.094;11.838;2022-12-07T09:13:06;95322.00;;;0.81;100.00
70559;BME280;58108;48.094;11.838;2022-12-07T09:15:31;95323.41;;;0.89;100.00
70559;BME280;58108;48.094;11.838;2022-12-07T09:17:57;95322.25;;;0.96;100.00
70559;BME280;58108;48.094;11.838;2022-12-07T09:20:22;95321.06;;;1.03;100.00
70559;BME280;58108;48.094;11.838;2022-12-07T09:22:48;95324.22;;;1.10;100.00
70559;BME280;58108;48.094;11.838;2022-12-07T09:25:13;95319.25;;;1.05;100.00
70559;BME280;58108;48.094;11.838;2022-12-07T09:27:38;95315.91;;;1.03;100.00
70559;BME280;58108;48.094;11.838;2022-12-07T09:30:05;95315.50;;;1.13;100.00
70559;BME280;58108;48.094;11.838;2022-12-07T09:32:30;95320.13;;;1.25;100.00
70559;BME280;58108;48.094;11.838;2022-12-07T09:34:56;95318.16;;;1.49;100.00
70559;BME280;58108;48.094;11.838;2022-12-07T09:37:21;95310.84;;;1.59;100.00
70559;BME280;58108;48.094;11.838;2022-12-07T09:39:46;95311.06;;;1.74;99.46
70559;BME280;58108;48.094;11.838;2022-12-07T09:44:52;95312.44;;;1.81;100.00
70559;BME280;58108;48.094;11.838;2022-12-07T09:47:17;95300.50;;;1.78;99.69
70559;BME280;58108;48.094;11.838;2022-12-07T09:49:42;95305.97;;;1.53;97.98
70559;BME280;58108;48.094;11.838;2022-12-07T09:54:36;95314.56;;;1.54;99.39
70559;BME280;58108;48.094;11.838;2022-12-07T09:57:03;95300.81;;;1.91;99.12
70559;BME280;58108;48.094;11.838;2022-12-07T09:59:28;95307.78;;;1.70;95.48
70559;BME280;58108;48.094;11.838;2022-12-07T10:01:55;95314.72;;;1.50;96.41
70559;BME280;58108;48.094;11.838;2022-12-07T10:04:22;95310.72;;;1.62;98.19
70559;BME280;58108;48.094;11.838;2022-12-07T10:06:49;95299.31;;;1.86;94.59
70559;BME280;58108;48.094;11.838;2022-12-07T10:09:17;95292.78;;;1.59;95.37
70559;BME280;58108;48.094;11.838;2022-12-07T10:12:00;95293.84;;;1.74;95.07
70559;BME280;58108;48.094;11.838;2022-12-07T10:14:28;95290.91;;;1.63;95.56
70559;BME280;58108;48.094;11.838;2022-12-07T10:16:54;95292.03;;;1.94;93.66
70559;BME280;58108;48.094;11.838;2022-12-07T10:19:32;95290.66;;;1.87;94.66
70559;BME280;58108;48.094;11.838;2022-12-07T10:24:37;95293.06;;;2.09;94.10
70559;BME280;58108;48.094;11.838;2022-12-07T10:27:04;95297.09;;;2.15;94.57
70559;BME280;58108;48.094;11.838;2022-12-07T10:29:36;95279.19;;;2.29;93.25
70559;BME280;58108;48.094;11.838;2022-12-07T10:34:49;95282.84;;;1.88;94.12
70559;BME280;58108;48.094;11.838;2022-12-07T10:40:00;95282.41;;;1.98;94.90
70559;BME280;58108;48.094;11.838;2022-12-07T10:42:27;95281.31;;;2.21;92.78
70559;BME280;58108;48.094;11.838;2022-12-07T10:53:17;95269.91;;;2.43;91.93
70559;BME280;58108;48.094;11.838;2022-12-07T11:01:45;95268.53;;;2.53;89.48
70559;BME280;58108;48.094;11.838;2022-12-07T11:12:34;95252.03;;;2.56;90.11
70559;BME280;58108;48.094;11.838;2022-12-07T11:17:54;95250.25;;;2.40;88.46
70559;BME280;58108;48.094;11.838;2022-12-07T11:20:49;95244.00;;;2.44;89.65
70559;BME280;58108;48.094;11.838;2022-12-07T11:23:48;95241.09;;;2.51;89.74
70559;BME280;58108;48.094;11.838;2022-12-07T11:26:20;95239.94;;;2.74;87.72
70559;BME280;58108;48.094;11.838;2022-12-07T11:31:29;95230.38;;;2.92;87.35
70559;BME280;58108;48.094;11.838;2022-12-07T11:36:57;95233.38;;;2.84;84.74
70559;BME280;58108;48.094;11.838;2022-12-07T11:41:50;95237.31;;;2.92;85.79
70559;BME280;58108;48.094;11.838;2022-12-07T11:46:49;95233.88;;;3.25;82.61
70559;BME280;58108;48.094;11.838;2022-12-07T11:49:39;95231.09;;;3.92;79.70
70559;BME280;58108;48.094;11.838;2022-12-07T11:52:15;95224.22;;;3.91;77.41
70559;BME280;58108;48.094;11.838;2022-12-07T11:54:45;95220.41;;;3.66;80.29
70559;BME280;58108;48.094;11.838;2022-12-07T11:57:42;95225.19;;;3.26;82.18
70559;BME280;58108;48.094;11.838;2022-12-07T12:00:27;95216.91;;;3.51;80.87
70559;BME280;58108;48.094;11.838;2022-12-07T12:02:59;95208.09;;;2.73;84.88
70559;BME280;58108;48.094;11.838;2022-12-07T12:05:27;95205.84;;;2.83;84.02
70559;BME280;58108;48.094;11.838;2022-12-07T12:08:14;95203.53;;;2.95;82.69
70559;BME280;58108;48.094;11.838;2022-12-07T12:10:55;95201.66;;;3.47;83.29
70559;BME280;58108;48.094;11.838;2022-12-07T12:18:53;95187.72;;;3.80;79.67
70559;BME280;58108;48.094;11.838;2022-12-07T12:21:27;95189.84;;;4.04;83.56
70559;BME280;58108;48.094;11.838;2022-12-07T12:23:58;95188.94;;;4.64;79.23
70559;BME280;58108;48.094;11.838;2022-12-07T12:26:27;95180.94;;;4.24;77.56
70559;BME280;58108;48.094;11.838;2022-12-07T12:32:16;95192.16;;;3.94;78.74
70559;BME280;58108;48.094;11.838;2022-12-07T12:35:20;95185.91;;;3.82;78.21
70559;BME280;58108;48.094;11.838;2022-12-07T12:37:49;95186.78;;;3.97;80.51
70559;BME280;58108;48.094;11.838;2022-12-07T12:45:32;95186.84;;;3.65;78.11
70559;BME280;58108;48.094;11.838;2022-12-07T12:48:02;95186.44;;;3.40;78.99
70559;BME280;58108;48.094;11.838;2022-12-07T12:50:35;95186.19;;;3.45;80.18
70559;BME280;58108;48.094;11.838;2022-12-07T12:53:19;95183.19;;;3.21;80.53
70559;BME280;58108;48.094;11.838;2022-12-07T12:56:28;95175.25;;;3.08;81.45
70559;BME280;58108;48.094;11.838;2022-12-07T13:01:48;95175.44;;;3.21;80.84
70559;BME280;58108;48.094;11.838;2022-12-07T13:04:24;95177.91;;;3.71;80.62
70559;BME280;58108;48.094;11.838;2022-12-07T13:06:51;95174.22;;;3.75;79.39
70559;BME280;58108;48.094;11.838;2022-12-07T13:09:28;95169.44;;;3.20;81.38
70559;BME280;58108;48.094;11.838;2022-12-07T13:12:01;95163.41;;;2.87;83.26
70559;BME280;58108;48.094;11.838;2022-12-07T13:14:53;95167.78;;;3.19;82.89
70559;BME280;58108;48.094;11.838;2022-12-07T13:28:02;95157.59;;;3.00;83.52
70559;BME280;58108;48.094;11.838;2022-12-07T13:30:29;95160.97;;;2.84;84.13
70559;BME280;58108;48.094;11.838;2022-12-07T13:32:57;95161.69;;;2.70;86.68
70559;BME280;58108;48.094;11.838;2022-12-07T13:35:28;95156.16;;;2.60;86.00
70559;BME280;58108;48.094;11.838;2022-12-07T13:37:53;95164.88;;;2.76;86.05
70559;BME280;58108;48.094;11.838;2022-12-07T13:40:21;95157.13;;;2.42;87.69
70559;BME280;58108;48.094;11.838;2022-12-07T13:42:47;95161.81;;;2.85;86.41
70559;BME280;58108;48.094;11.838;2022-12-07T13:45:22;95158.31;;;2.52;87.36
70559;BME280;58108;48.094;11.838;2022-12-07T13:48:14;95157.81;;;2.45;87.70
70559;BME280;58108;48.094;11.838;2022-12-07T13:50:41;95153.63;;;2.43;88.69
70559;BME280;58108;48.094;11.838;2022-12-07T13:53:12;95151.38;;;2.37;89.13
70559;BME280;58108;48.094;11.838;2022-12-07T13:55:44;95150.81;;;2.48;89.28
70559;BME280;58108;48.094;11.838;2022-12-07T13:58:10;95152.31;;;2.18;89.83
70559;BME280;58108;48.094;11.838;2022-12-07T14:00:36;95154.34;;;2.11;90.16
70559;BME280;58108;48.094;11.838;2022-12-07T14:03:26;95156.97;;;2.45;89.21
70559;BME280;58108;48.094;11.838;2022-12-07T14:06:46;95151.44;;;2.35;88.10
70559;BME280;58108;48.094;11.838;2022-12-07T14:09:14;95146.69;;;2.27;89.23
70559;BME280;58108;48.094;11.838;2022-12-07T14:11:41;95147.44;;;1.94;89.93
70559;BME280;58108;48.094;11.838;2022-12-07T14:14:13;95147.16;;;2.00;89.56
70559;BME280;58108;48.094;11.838;2022-12-07T14:16:41;95150.00;;;2.29;89.56
70559;BME280;58108;48.094;11.838;2022-12-07T14:22:37;95138.94;;;1.92;91.57
70559;BME280;58108;48.094;11.838;2022-12-07T14:25:22;95141.53;;;2.10;90.93
70559;BME280;58108;48.094;11.838;2022-12-07T14:27:56;95143.66;;;2.01;91.36
70559;BME280;58108;48.094;11.838;2022-12-07T14:30:25;95143.09;;;2.12;90.11
70559;BME280;58108;48.094;11.838;2022-12-07T14:33:01;95142.59;;;2.05;91.56
70559;BME280;58108;48.094;11.838;2022-12-07T14:35:27;95140.41;;;2.15;91.23
70559;BME280;58108;48.094;11.838;2022-12-07T14:37:52;95141.31;;;2.14;91.30
70559;BME280;58108;48.094;11.838;2022-12-07T14:40:20;95141.97;;;2.00;91.63
70559;BME280;58108;48.094;11.838;2022-12-07T14:42:49;95143.44;;;2.06;92.14
70559;BME280;58108;48.094;11.838;2022-12-07T14:45:17;95147.94;;;2.02;92.29
70559;BME280;58108;48.094;11.838;2022-12-07T14:47:44;95144.50;;;1.84;93.48
70559;BME280;58108;48.094;11.838;2022-12-07T14:50:15;95147.91;;;1.67;94.94
70559;BME280;58108;48.094;11.838;2022-12-07T14:52:42;95151.13;;;1.72;94.94
70559;BME280;58108;48.094;11.838;2022-12-07T14:55:14;95139.84;;;1.56;95.15
70559;BME280;58108;48.094;11.838;2022-12-07T14:57:41;95143.66;;;1.66;95.07